sensor_id;sensor_type;location;lat;lon;timestamp;P1;durP1;ratioP1;P2;durP2;ratioP2
54261;SDS011;40174;52.364;6.452;2022-11-28T00:01:27;11.80;;;3.67;;
54261;SDS011;40174;52.364;6.452;2022-11-28T00:03:55;14.43;;;4.28;;
54261;SDS011;40174;52.364;6.452;2022-11-28T00:06:22;10.00;;;3.83;;
54261;SDS011;40174;52.364;6.452;2022-11-28T00:08:49;9.93;;;3.83;;
54261;SDS011;40174;52.364;6.452;2022-11-28T00:11:15;7.88;;;3.15;;
54261;SDS011;40174;52.364;6.452;2022-11-28T00:13:43;9.73;;;3.60;;
54261;SDS011;40174;52.364;6.452;2022-11-28T00:16:14;11.25;;;4.10;;
54261;SDS011;40174;52.364;6.452;2022-11-28T00:18:44;12.45;;;3.88;;
54261;SDS011;40174;52.364;6.452;2022-11-28T00:21:11;7.75;;;3.53;;
54261;SDS011;40174;52.364;6.452;2022-11-28T00:23:39;10.73;;;3.80;;
54261;SDS011;40174;52.364;6.452;2022-11-28T00:26:08;12.43;;;4.25;;
54261;SDS011;40174;52.364;6.452;2022-11-28T00:28:35;8.60;;;3.05;;
54261;SDS011;40174;52.364;6.452;2022-11-28T00:31:02;8.20;;;3.92;;
54261;SDS011;40174;52.364;6.452;2022-11-28T00:33:31;9.73;;;3.78;;
54261;SDS011;40174;52.364;6.452;2022-11-28T00:35:58;10.68;;;4.07;;
54261;SDS011;40174;52.364;6.452;2022-11-28T00:38:26;8.27;;;3.97;;
54261;SDS011;40174;52.364;6.452;2022-11-28T00:40:57;7.93;;;3.58;;
54261;SDS011;40174;52.364;6.452;2022-11-28T00:43:25;10.93;;;3.92;;
54261;SDS011;40174;52.364;6.452;2022-11-28T00:45:51;8.98;;;3.53;;
54261;SDS011;40174;52.364;6.452;2022-11-28T00:48:18;8.48;;;3.65;;
54261;SDS011;40174;52.364;6.452;2022-11-28T00:50:46;10.82;;;4.05;;
54261;SDS011;40174;52.364;6.452;2022-11-28T00:53:12;10.00;;;4.13;;
54261;SDS011;40174;52.364;6.452;2022-11-28T00:55:39;8.32;;;4.13;;
54261;SDS011;40174;52.364;6.452;2022-11-28T00:58:06;11.95;;;3.58;;
54261;SDS011;40174;52.364;6.452;2022-11-28T01:00:33;8.50;;;3.83;;
54261;SDS011;40174;52.364;6.452;2022-11-28T01:02:59;9.40;;;3.38;;
54261;SDS011;40174;52.364;6.452;2022-11-28T01:05:26;7.88;;;3.60;;
54261;SDS011;40174;52.364;6.452;2022-11-28T01:07:54;11.68;;;3.72;;
54261;SDS011;40174;52.364;6.452;2022-11-28T01:10:20;9.13;;;3.65;;
54261;SDS011;40174;52.364;6.452;2022-11-28T01:12:48;10.38;;;3.05;;
54261;SDS011;40174;52.364;6.452;2022-11-28T01:15:15;8.88;;;3.72;;
54261;SDS011;40174;52.364;6.452;2022-11-28T01:17:41;8.57;;;3.83;;
54261;SDS011;40174;52.364;6.452;2022-11-28T01:20:09;10.43;;;3.90;;
54261;SDS011;40174;52.364;6.452;2022-11-28T01:22:36;7.07;;;3.38;;
54261;SDS011;40174;52.364;6.452;2022-11-28T01:25:04;7.38;;;3.55;;
54261;SDS011;40174;52.364;6.452;2022-11-28T01:27:31;8.35;;;3.58;;
54261;SDS011;40174;52.364;6.452;2022-11-28T01:29:58;8.15;;;3.45;;
54261;SDS011;40174;52.364;6.452;2022-11-28T01:32:24;9.10;;;3.85;;
54261;SDS011;40174;52.364;6.452;2022-11-28T01:34:51;10.75;;;3.63;;
54261;SDS011;40174;52.364;6.452;2022-11-28T01:37:17;7.25;;;3.50;;
54261;SDS011;40174;52.364;6.452;2022-11-28T01:39:44;7.93;;;3.50;;
54261;SDS011;40174;52.364;6.452;2022-11-28T01:42:16;8.70;;;3.72;;
54261;SDS011;40174;52.364;6.452;2022-11-28T01:45:07;8.00;;;3.42;;
54261;SDS011;40174;52.364;6.452;2022-11-28T01:47:39;8.65;;;3.75;;
54261;SDS011;40174;52.364;6.452;2022-11-28T01:50:06;9.18;;;3.50;;
54261;SDS011;40174;52.364;6.452;2022-11-28T01:52:34;9.55;;;3.67;;
54261;SDS011;40174;52.364;6.452;2022-11-28T01:55:03;8.48;;;3.85;;
54261;SDS011;40174;52.364;6.452;2022-11-28T01:57:32;10.15;;;3.92;;
54261;SDS011;40174;52.364;6.452;2022-11-28T02:00:01;15.25;;;3.72;;
54261;SDS011;40174;52.364;6.452;2022-11-28T02:02:38;9.35;;;3.70;;
54261;SDS011;40174;52.364;6.452;2022-11-28T02:05:07;10.07;;;4.10;;
54261;SDS011;40174;52.364;6.452;2022-11-28T02:07:34;10.18;;;3.72;;
54261;SDS011;40174;52.364;6.452;2022-11-28T02:10:01;9.27;;;4.05;;
54261;SDS011;40174;52.364;6.452;2022-11-28T02:12:36;11.70;;;4.85;;
54261;SDS011;40174;52.364;6.452;2022-11-28T02:15:19;10.35;;;4.60;;
54261;SDS011;40174;52.364;6.452;2022-11-28T02:17:59;8.05;;;3.63;;
54261;SDS011;40174;52.364;6.452;2022-11-28T02:23:49;11.43;;;4.70;;
54261;SDS011;40174;52.364;6.452;2022-11-28T02:32:47;11.90;;;5.03;;
54261;SDS011;40174;52.364;6.452;2022-11-28T02:35:20;7.70;;;3.70;;
54261;SDS011;40174;52.364;6.452;2022-11-28T02:37:55;11.15;;;4.35;;
54261;SDS011;40174;52.364;6.452;2022-11-28T02:40:31;10.80;;;4.57;;
54261;SDS011;40174;52.364;6.452;2022-11-28T02:43:04;12.73;;;5.03;;
54261;SDS011;40174;52.364;6.452;2022-11-28T02:45:38;16.83;;;4.35;;
54261;SDS011;40174;52.364;6.452;2022-11-28T02:48:14;12.07;;;4.57;;
54261;SDS011;40174;52.364;6.452;2022-11-28T02:50:49;10.98;;;4.25;;
54261;SDS011;40174;52.364;6.452;2022-11-28T02:53:21;9.00;;;4.10;;
54261;SDS011;40174;52.364;6.452;2022-11-28T02:55:51;10.77;;;4.75;;
54261;SDS011;40174;52.364;6.452;2022-11-28T02:58:18;11.43;;;5.25;;
54261;SDS011;40174;52.364;6.452;2022-11-28T03:00:45;12.35;;;4.95;;
54261;SDS011;40174;52.364;6.452;2022-11-28T03:03:24;9.32;;;4.45;;
54261;SDS011;40174;52.364;6.452;2022-11-28T03:06:09;11.18;;;4.65;;
54261;SDS011;40174;52.364;6.452;2022-11-28T03:08:47;14.38;;;5.53;;
54261;SDS011;40174;52.364;6.452;2022-11-28T03:11:31;11.80;;;5.25;;
54261;SDS011;40174;52.364;6.452;2022-11-28T03:14:08;15.43;;;5.85;;
54261;SDS011;40174;52.364;6.452;2022-11-28T03:16:45;14.90;;;5.57;;
54261;SDS011;40174;52.364;6.452;2022-11-28T03:19:19;11.82;;;5.22;;
54261;SDS011;40174;52.364;6.452;2022-11-28T03:21:53;14.57;;;5.35;;
54261;SDS011;40174;52.364;6.452;2022-11-28T03:24:27;13.10;;;6.07;;
54261;SDS011;40174;52.364;6.452;2022-11-28T03:27:02;18.50;;;7.00;;
54261;SDS011;40174;52.364;6.452;2022-11-28T03:29:33;16.92;;;5.85;;
54261;SDS011;40174;52.364;6.452;2022-11-28T03:32:06;15.23;;;5.13;;
54261;SDS011;40174;52.364;6.452;2022-11-28T03:34:36;17.13;;;6.10;;
54261;SDS011;40174;52.364;6.452;2022-11-28T03:37:07;16.98;;;6.03;;
54261;SDS011;40174;52.364;6.452;2022-11-28T03:39:38;15.52;;;5.43;;
54261;SDS011;40174;52.364;6.452;2022-11-28T03:42:10;16.08;;;6.18;;
54261;SDS011;40174;52.364;6.452;2022-11-28T03:44:43;15.50;;;6.40;;
54261;SDS011;40174;52.364;6.452;2022-11-28T03:47:13;14.55;;;6.28;;
54261;SDS011;40174;52.364;6.452;2022-11-28T03:49:42;14.43;;;6.28;;
54261;SDS011;40174;52.364;6.452;2022-11-28T03:52:16;16.73;;;6.20;;
54261;SDS011;40174;52.364;6.452;2022-11-28T03:54:49;12.48;;;5.40;;
54261;SDS011;40174;52.364;6.452;2022-11-28T03:57:21;12.63;;;5.57;;
54261;SDS011;40174;52.364;6.452;2022-11-28T03:59:52;11.00;;;5.60;;
54261;SDS011;40174;52.364;6.452;2022-11-28T04:02:23;12.95;;;6.13;;
54261;SDS011;40174;52.364;6.452;2022-11-28T04:04:58;12.40;;;5.53;;
54261;SDS011;40174;52.364;6.452;2022-11-28T04:07:31;12.65;;;5.43;;
54261;SDS011;40174;52.364;6.452;2022-11-28T04:10:05;13.52;;;5.68;;
54261;SDS011;40174;52.364;6.452;2022-11-28T04:12:42;11.85;;;5.50;;
54261;SDS011;40174;52.364;6.452;2022-11-28T04:15:17;11.13;;;5.10;;
54261;SDS011;40174;52.364;6.452;2022-11-28T04:17:53;14.40;;;6.72;;
54261;SDS011;40174;52.364;6.452;2022-11-28T04:20:27;15.10;;;6.50;;
54261;SDS011;40174;52.364;6.452;2022-11-28T04:22:58;16.40;;;6.85;;
54261;SDS011;40174;52.364;6.452;2022-11-28T04:25:29;13.63;;;6.40;;
54261;SDS011;40174;52.364;6.452;2022-11-28T04:28:00;15.38;;;7.03;;
54261;SDS011;40174;52.364;6.452;2022-11-28T04:30:29;18.05;;;7.07;;
54261;SDS011;40174;52.364;6.452;2022-11-28T04:32:58;15.30;;;7.05;;
54261;SDS011;40174;52.364;6.452;2022-11-28T04:35:29;17.67;;;6.22;;
54261;SDS011;40174;52.364;6.452;2022-11-28T04:37:58;16.25;;;6.70;;
54261;SDS011;40174;52.364;6.452;2022-11-28T04:40:27;17.02;;;8.43;;
54261;SDS011;40174;52.364;6.452;2022-11-28T04:42:57;15.43;;;6.78;;
54261;SDS011;40174;52.364;6.452;2022-11-28T04:45:28;15.35;;;6.93;;
54261;SDS011;40174;52.364;6.452;2022-11-28T04:47:57;17.70;;;7.22;;
54261;SDS011;40174;52.364;6.452;2022-11-28T04:50:24;14.70;;;6.97;;
54261;SDS011;40174;52.364;6.452;2022-11-28T04:52:59;14.57;;;6.50;;
54261;SDS011;40174;52.364;6.452;2022-11-28T04:55:32;16.50;;;6.88;;
54261;SDS011;40174;52.364;6.452;2022-11-28T04:58:05;15.25;;;7.53;;
54261;SDS011;40174;52.364;6.452;2022-11-28T05:00:36;11.55;;;6.05;;
54261;SDS011;40174;52.364;6.452;2022-11-28T05:03:03;15.07;;;6.80;;
54261;SDS011;40174;52.364;6.452;2022-11-28T05:05:38;13.70;;;6.00;;
54261;SDS011;40174;52.364;6.452;2022-11-28T05:08:08;16.42;;;7.00;;
54261;SDS011;40174;52.364;6.452;2022-11-28T05:10:35;12.38;;;6.13;;
54261;SDS011;40174;52.364;6.452;2022-11-28T05:13:02;14.85;;;6.20;;
54261;SDS011;40174;52.364;6.452;2022-11-28T05:15:28;12.13;;;5.57;;
54261;SDS011;40174;52.364;6.452;2022-11-28T05:17:55;15.70;;;6.57;;
54261;SDS011;40174;52.364;6.452;2022-11-28T05:20:22;14.85;;;5.43;;
54261;SDS011;40174;52.364;6.452;2022-11-28T05:22:50;13.55;;;5.57;;
54261;SDS011;40174;52.364;6.452;2022-11-28T05:25:16;13.85;;;6.18;;
54261;SDS011;40174;52.364;6.452;2022-11-28T05:27:43;14.73;;;5.93;;
54261;SDS011;40174;52.364;6.452;2022-11-28T05:30:10;14.88;;;6.28;;
54261;SDS011;40174;52.364;6.452;2022-11-28T05:32:37;13.60;;;5.72;;
54261;SDS011;40174;52.364;6.452;2022-11-28T05:35:04;15.07;;;5.80;;
54261;SDS011;40174;52.364;6.452;2022-11-28T05:37:31;11.82;;;5.85;;
54261;SDS011;40174;52.364;6.452;2022-11-28T05:39:59;12.40;;;5.65;;
54261;SDS011;40174;52.364;6.452;2022-11-28T05:42:26;11.30;;;5.50;;
54261;SDS011;40174;52.364;6.452;2022-11-28T05:44:54;11.60;;;5.13;;
54261;SDS011;40174;52.364;6.452;2022-11-28T05:47:21;14.05;;;6.18;;
54261;SDS011;40174;52.364;6.452;2022-11-28T05:49:49;13.55;;;5.53;;
54261;SDS011;40174;52.364;6.452;2022-11-28T05:52:16;11.35;;;5.18;;
54261;SDS011;40174;52.364;6.452;2022-11-28T05:54:42;13.68;;;6.03;;
54261;SDS011;40174;52.364;6.452;2022-11-28T05:57:10;14.30;;;5.68;;
54261;SDS011;40174;52.364;6.452;2022-11-28T05:59:37;14.35;;;6.20;;
54261;SDS011;40174;52.364;6.452;2022-11-28T06:02:03;12.80;;;5.40;;
54261;SDS011;40174;52.364;6.452;2022-11-28T06:04:30;10.85;;;5.50;;
54261;SDS011;40174;52.364;6.452;2022-11-28T06:06:57;14.88;;;6.07;;
54261;SDS011;40174;52.364;6.452;2022-11-28T06:09:24;13.30;;;6.25;;
54261;SDS011;40174;52.364;6.452;2022-11-28T06:11:50;13.98;;;5.90;;
54261;SDS011;40174;52.364;6.452;2022-11-28T06:14:18;11.40;;;5.63;;
54261;SDS011;40174;52.364;6.452;2022-11-28T06:16:45;11.85;;;5.32;;
54261;SDS011;40174;52.364;6.452;2022-11-28T06:19:11;12.38;;;5.78;;
54261;SDS011;40174;52.364;6.452;2022-11-28T06:21:38;15.45;;;6.13;;
54261;SDS011;40174;52.364;6.452;2022-11-28T06:24:05;11.95;;;6.15;;
54261;SDS011;40174;52.364;6.452;2022-11-28T06:26:32;12.35;;;5.60;;
54261;SDS011;40174;52.364;6.452;2022-11-28T06:28:59;13.52;;;5.90;;
54261;SDS011;40174;52.364;6.452;2022-11-28T06:31:27;14.18;;;5.68;;
54261;SDS011;40174;52.364;6.452;2022-11-28T06:33:55;12.00;;;5.32;;
54261;SDS011;40174;52.364;6.452;2022-11-28T06:36:22;11.38;;;5.47;;
54261;SDS011;40174;52.364;6.452;2022-11-28T06:38:50;12.20;;;5.85;;
54261;SDS011;40174;52.364;6.452;2022-11-28T06:41:17;11.25;;;5.53;;
54261;SDS011;40174;52.364;6.452;2022-11-28T06:43:45;12.75;;;5.70;;
54261;SDS011;40174;52.364;6.452;2022-11-28T06:46:12;14.43;;;7.22;;
54261;SDS011;40174;52.364;6.452;2022-11-28T06:48:41;11.98;;;5.47;;
54261;SDS011;40174;52.364;6.452;2022-11-28T06:51:08;13.07;;;5.93;;
54261;SDS011;40174;52.364;6.452;2022-11-28T06:53:36;13.45;;;6.25;;
54261;SDS011;40174;52.364;6.452;2022-11-28T06:56:03;14.10;;;5.82;;
54261;SDS011;40174;52.364;6.452;2022-11-28T06:58:30;11.52;;;6.00;;
54261;SDS011;40174;52.364;6.452;2022-11-28T07:01:03;12.13;;;5.45;;
54261;SDS011;40174;52.364;6.452;2022-11-28T07:03:30;12.98;;;5.75;;
54261;SDS011;40174;52.364;6.452;2022-11-28T07:05:59;11.48;;;4.78;;
54261;SDS011;40174;52.364;6.452;2022-11-28T07:08:27;12.00;;;5.63;;
54261;SDS011;40174;52.364;6.452;2022-11-28T07:10:53;10.30;;;5.22;;
54261;SDS011;40174;52.364;6.452;2022-11-28T07:13:21;11.23;;;5.65;;
54261;SDS011;40174;52.364;6.452;2022-11-28T07:15:48;14.18;;;6.07;;
54261;SDS011;40174;52.364;6.452;2022-11-28T07:18:15;9.60;;;5.25;;
54261;SDS011;40174;52.364;6.452;2022-11-28T07:20:42;12.27;;;5.82;;
54261;SDS011;40174;52.364;6.452;2022-11-28T07:23:09;12.30;;;5.22;;
54261;SDS011;40174;52.364;6.452;2022-11-28T07:25:36;13.48;;;5.72;;
54261;SDS011;40174;52.364;6.452;2022-11-28T07:28:03;11.45;;;5.65;;
54261;SDS011;40174;52.364;6.452;2022-11-28T07:30:29;13.25;;;5.78;;
54261;SDS011;40174;52.364;6.452;2022-11-28T07:32:56;12.85;;;6.00;;
54261;SDS011;40174;52.364;6.452;2022-11-28T07:35:22;14.00;;;5.68;;
54261;SDS011;40174;52.364;6.452;2022-11-28T07:37:49;13.68;;;5.70;;
54261;SDS011;40174;52.364;6.452;2022-11-28T07:40:17;12.40;;;5.93;;
54261;SDS011;40174;52.364;6.452;2022-11-28T07:42:44;12.50;;;5.43;;
54261;SDS011;40174;52.364;6.452;2022-11-28T07:45:12;11.48;;;6.00;;
54261;SDS011;40174;52.364;6.452;2022-11-28T07:47:39;14.00;;;5.90;;
54261;SDS011;40174;52.364;6.452;2022-11-28T07:50:06;13.38;;;6.22;;
54261;SDS011;40174;52.364;6.452;2022-11-28T07:52:33;11.27;;;5.88;;
54261;SDS011;40174;52.364;6.452;2022-11-28T07:55:00;12.60;;;6.35;;
54261;SDS011;40174;52.364;6.452;2022-11-28T07:57:28;13.23;;;5.72;;
54261;SDS011;40174;52.364;6.452;2022-11-28T07:59:55;14.48;;;5.75;;
54261;SDS011;40174;52.364;6.452;2022-11-28T08:02:22;13.82;;;6.13;;
54261;SDS011;40174;52.364;6.452;2022-11-28T08:04:49;15.05;;;6.65;;
54261;SDS011;40174;52.364;6.452;2022-11-28T08:07:15;16.50;;;6.78;;
54261;SDS011;40174;52.364;6.452;2022-11-28T08:09:42;16.30;;;6.35;;
54261;SDS011;40174;52.364;6.452;2022-11-28T08:12:08;13.68;;;6.32;;
54261;SDS011;40174;52.364;6.452;2022-11-28T08:14:36;14.00;;;6.32;;
54261;SDS011;40174;52.364;6.452;2022-11-28T08:17:03;14.85;;;6.45;;
54261;SDS011;40174;52.364;6.452;2022-11-28T08:19:29;14.20;;;6.95;;
54261;SDS011;40174;52.364;6.452;2022-11-28T08:21:56;14.52;;;6.38;;
54261;SDS011;40174;52.364;6.452;2022-11-28T08:24:22;14.70;;;6.50;;
54261;SDS011;40174;52.364;6.452;2022-11-28T08:26:49;20.77;;;6.75;;
54261;SDS011;40174;52.364;6.452;2022-11-28T08:29:15;13.63;;;6.45;;
54261;SDS011;40174;52.364;6.452;2022-11-28T08:31:44;14.40;;;6.70;;
54261;SDS011;40174;52.364;6.452;2022-11-28T08:34:11;13.57;;;6.57;;
54261;SDS011;40174;52.364;6.452;2022-11-28T08:36:37;13.40;;;6.97;;
54261;SDS011;40174;52.364;6.452;2022-11-28T08:39:04;13.82;;;5.88;;
54261;SDS011;40174;52.364;6.452;2022-11-28T08:41:32;12.57;;;5.90;;
54261;SDS011;40174;52.364;6.452;2022-11-28T08:43:58;14.07;;;6.30;;
54261;SDS011;40174;52.364;6.452;2022-11-28T08:46:25;14.77;;;6.20;;
54261;SDS011;40174;52.364;6.452;2022-11-28T08:48:53;11.75;;;5.43;;
54261;SDS011;40174;52.364;6.452;2022-11-28T08:51:20;13.02;;;5.78;;
54261;SDS011;40174;52.364;6.452;2022-11-28T08:53:49;13.00;;;6.03;;
54261;SDS011;40174;52.364;6.452;2022-11-28T08:56:16;11.18;;;5.68;;
54261;SDS011;40174;52.364;6.452;2022-11-28T08:58:43;11.88;;;5.78;;
54261;SDS011;40174;52.364;6.452;2022-11-28T09:01:13;12.52;;;5.35;;
54261;SDS011;40174;52.364;6.452;2022-11-28T09:03:41;11.32;;;5.18;;
54261;SDS011;40174;52.364;6.452;2022-11-28T09:06:09;12.38;;;5.18;;
54261;SDS011;40174;52.364;6.452;2022-11-28T09:08:35;12.15;;;5.82;;
54261;SDS011;40174;52.364;6.452;2022-11-28T09:11:04;13.38;;;6.00;;
54261;SDS011;40174;52.364;6.452;2022-11-28T09:13:31;12.57;;;5.20;;
54261;SDS011;40174;52.364;6.452;2022-11-28T09:15:58;11.75;;;5.38;;
54261;SDS011;40174;52.364;6.452;2022-11-28T09:18:24;13.05;;;5.80;;
54261;SDS011;40174;52.364;6.452;2022-11-28T09:20:55;15.13;;;6.68;;
54261;SDS011;40174;52.364;6.452;2022-11-28T09:23:24;10.63;;;5.18;;
54261;SDS011;40174;52.364;6.452;2022-11-28T09:25:51;11.90;;;5.82;;
54261;SDS011;40174;52.364;6.452;2022-11-28T09:28:17;9.75;;;4.95;;
54261;SDS011;40174;52.364;6.452;2022-11-28T09:30:44;13.63;;;5.18;;
54261;SDS011;40174;52.364;6.452;2022-11-28T09:33:11;12.00;;;5.20;;
54261;SDS011;40174;52.364;6.452;2022-11-28T09:35:38;11.77;;;4.90;;
54261;SDS011;40174;52.364;6.452;2022-11-28T09:38:05;10.23;;;4.60;;
54261;SDS011;40174;52.364;6.452;2022-11-28T09:40:34;10.57;;;4.88;;
54261;SDS011;40174;52.364;6.452;2022-11-28T09:43:03;10.63;;;5.47;;
54261;SDS011;40174;52.364;6.452;2022-11-28T09:45:37;13.43;;;5.20;;
54261;SDS011;40174;52.364;6.452;2022-11-28T09:48:11;13.18;;;4.93;;
54261;SDS011;40174;52.364;6.452;2022-11-28T09:50:48;9.48;;;4.97;;
54261;SDS011;40174;52.364;6.452;2022-11-28T09:53:20;10.40;;;4.45;;
54261;SDS011;40174;52.364;6.452;2022-11-28T09:55:52;9.80;;;4.20;;
54261;SDS011;40174;52.364;6.452;2022-11-28T09:58:23;9.35;;;4.03;;
54261;SDS011;40174;52.364;6.452;2022-11-28T10:00:56;8.50;;;4.10;;
54261;SDS011;40174;52.364;6.452;2022-11-28T10:03:35;9.20;;;4.10;;
54261;SDS011;40174;52.364;6.452;2022-11-28T10:06:09;10.55;;;4.40;;
54261;SDS011;40174;52.364;6.452;2022-11-28T10:08:44;8.88;;;3.72;;
54261;SDS011;40174;52.364;6.452;2022-11-28T10:11:25;9.77;;;4.32;;
54261;SDS011;40174;52.364;6.452;2022-11-28T10:14:04;8.27;;;3.90;;
54261;SDS011;40174;52.364;6.452;2022-11-28T10:16:45;7.93;;;3.88;;
54261;SDS011;40174;52.364;6.452;2022-11-28T10:19:24;9.23;;;4.05;;
54261;SDS011;40174;52.364;6.452;2022-11-28T10:21:58;8.75;;;3.95;;
54261;SDS011;40174;52.364;6.452;2022-11-28T10:24:29;9.63;;;4.15;;
54261;SDS011;40174;52.364;6.452;2022-11-28T10:27:04;10.75;;;4.25;;
54261;SDS011;40174;52.364;6.452;2022-11-28T10:29:32;9.52;;;4.47;;
54261;SDS011;40174;52.364;6.452;2022-11-28T10:32:08;8.60;;;4.03;;
54261;SDS011;40174;52.364;6.452;2022-11-28T10:34:40;9.60;;;4.13;;
54261;SDS011;40174;52.364;6.452;2022-11-28T10:37:12;11.23;;;4.40;;
54261;SDS011;40174;52.364;6.452;2022-11-28T10:39:44;11.20;;;3.60;;
54261;SDS011;40174;52.364;6.452;2022-11-28T10:42:14;8.40;;;4.05;;
54261;SDS011;40174;52.364;6.452;2022-11-28T10:44:50;11.48;;;4.80;;
54261;SDS011;40174;52.364;6.452;2022-11-28T10:47:34;10.32;;;4.32;;
54261;SDS011;40174;52.364;6.452;2022-11-28T10:50:11;8.20;;;4.32;;
54261;SDS011;40174;52.364;6.452;2022-11-28T10:52:47;11.77;;;4.57;;
54261;SDS011;40174;52.364;6.452;2022-11-28T10:55:21;9.77;;;4.82;;
54261;SDS011;40174;52.364;6.452;2022-11-28T10:57:59;10.13;;;4.22;;
54261;SDS011;40174;52.364;6.452;2022-11-28T11:00:32;11.57;;;4.97;;
54261;SDS011;40174;52.364;6.452;2022-11-28T11:03:00;10.80;;;4.95;;
54261;SDS011;40174;52.364;6.452;2022-11-28T11:05:29;10.73;;;4.97;;
54261;SDS011;40174;52.364;6.452;2022-11-28T11:07:57;10.48;;;4.68;;
54261;SDS011;40174;52.364;6.452;2022-11-28T11:10:28;11.45;;;5.22;;
54261;SDS011;40174;52.364;6.452;2022-11-28T11:13:00;9.27;;;4.63;;
54261;SDS011;40174;52.364;6.452;2022-11-28T11:15:38;10.05;;;4.75;;
54261;SDS011;40174;52.364;6.452;2022-11-28T11:18:18;10.57;;;4.57;;
54261;SDS011;40174;52.364;6.452;2022-11-28T11:20:47;11.13;;;4.70;;
54261;SDS011;40174;52.364;6.452;2022-11-28T11:23:14;11.20;;;4.60;;
54261;SDS011;40174;52.364;6.452;2022-11-28T11:25:50;10.88;;;4.35;;
54261;SDS011;40174;52.364;6.452;2022-11-28T11:31:17;9.27;;;4.18;;
54261;SDS011;40174;52.364;6.452;2022-11-28T11:33:47;10.70;;;4.32;;
54261;SDS011;40174;52.364;6.452;2022-11-28T11:36:25;10.98;;;5.75;;
54261;SDS011;40174;52.364;6.452;2022-11-28T11:39:03;12.50;;;6.38;;
54261;SDS011;40174;52.364;6.452;2022-11-28T11:41:31;10.93;;;5.35;;
54261;SDS011;40174;52.364;6.452;2022-11-28T11:46:53;11.75;;;5.40;;
54261;SDS011;40174;52.364;6.452;2022-11-28T11:49:26;10.05;;;4.50;;
54261;SDS011;40174;52.364;6.452;2022-11-28T11:51:54;10.48;;;4.20;;
54261;SDS011;40174;52.364;6.452;2022-11-28T11:54:21;10.35;;;4.68;;
54261;SDS011;40174;52.364;6.452;2022-11-28T11:56:48;12.30;;;4.70;;
54261;SDS011;40174;52.364;6.452;2022-11-28T11:59:18;8.85;;;4.38;;
54261;SDS011;40174;52.364;6.452;2022-11-28T12:01:48;8.95;;;4.20;;
54261;SDS011;40174;52.364;6.452;2022-11-28T12:04:21;10.30;;;4.93;;
54261;SDS011;40174;52.364;6.452;2022-11-28T12:06:53;9.50;;;4.25;;
54261;SDS011;40174;52.364;6.452;2022-11-28T12:09:26;9.05;;;4.43;;
54261;SDS011;40174;52.364;6.452;2022-11-28T12:11:55;11.35;;;4.63;;
54261;SDS011;40174;52.364;6.452;2022-11-28T12:14:29;9.88;;;4.22;;
54261;SDS011;40174;52.364;6.452;2022-11-28T12:17:03;8.70;;;4.45;;
54261;SDS011;40174;52.364;6.452;2022-11-28T12:19:44;11.27;;;4.63;;
54261;SDS011;40174;52.364;6.452;2022-11-28T12:22:21;9.95;;;4.25;;
54261;SDS011;40174;52.364;6.452;2022-11-28T12:25:02;8.77;;;3.95;;
54261;SDS011;40174;52.364;6.452;2022-11-28T12:27:43;9.70;;;4.10;;
54261;SDS011;40174;52.364;6.452;2022-11-28T12:30:25;10.98;;;4.70;;
54261;SDS011;40174;52.364;6.452;2022-11-28T12:33:06;10.57;;;4.57;;
54261;SDS011;40174;52.364;6.452;2022-11-28T12:35:46;11.52;;;4.68;;
54261;SDS011;40174;52.364;6.452;2022-11-28T12:38:22;10.02;;;4.20;;
54261;SDS011;40174;52.364;6.452;2022-11-28T12:41:09;9.02;;;4.00;;
54261;SDS011;40174;52.364;6.452;2022-11-28T12:43:50;9.30;;;4.28;;
54261;SDS011;40174;52.364;6.452;2022-11-28T12:46:29;9.50;;;4.75;;
54261;SDS011;40174;52.364;6.452;2022-11-28T12:49:09;10.13;;;3.92;;
54261;SDS011;40174;52.364;6.452;2022-11-28T12:51:45;9.45;;;3.92;;
54261;SDS011;40174;52.364;6.452;2022-11-28T12:54:29;9.23;;;4.45;;
54261;SDS011;40174;52.364;6.452;2022-11-28T12:57:03;11.38;;;5.00;;
54261;SDS011;40174;52.364;6.452;2022-11-28T12:59:34;13.20;;;5.07;;
54261;SDS011;40174;52.364;6.452;2022-11-28T13:02:14;11.07;;;4.47;;
54261;SDS011;40174;52.364;6.452;2022-11-28T13:04:53;10.07;;;4.50;;
54261;SDS011;40174;52.364;6.452;2022-11-28T13:07:41;10.13;;;4.97;;
54261;SDS011;40174;52.364;6.452;2022-11-28T13:10:18;9.00;;;4.15;;
54261;SDS011;40174;52.364;6.452;2022-11-28T13:12:53;10.73;;;5.47;;
54261;SDS011;40174;52.364;6.452;2022-11-28T13:15:38;9.82;;;4.35;;
54261;SDS011;40174;52.364;6.452;2022-11-28T13:18:20;9.15;;;4.18;;
54261;SDS011;40174;52.364;6.452;2022-11-28T13:20:54;13.48;;;5.22;;
54261;SDS011;40174;52.364;6.452;2022-11-28T13:23:30;8.95;;;4.25;;
54261;SDS011;40174;52.364;6.452;2022-11-28T13:26:02;11.90;;;4.05;;
54261;SDS011;40174;52.364;6.452;2022-11-28T13:28:37;10.75;;;4.93;;
54261;SDS011;40174;52.364;6.452;2022-11-28T13:31:10;9.77;;;4.30;;
54261;SDS011;40174;52.364;6.452;2022-11-28T13:33:48;10.02;;;5.03;;
54261;SDS011;40174;52.364;6.452;2022-11-28T13:36:19;11.07;;;4.85;;
54261;SDS011;40174;52.364;6.452;2022-11-28T13:38:55;13.77;;;5.38;;
54261;SDS011;40174;52.364;6.452;2022-11-28T13:41:29;11.88;;;4.97;;
54261;SDS011;40174;52.364;6.452;2022-11-28T13:44:02;12.93;;;5.50;;
54261;SDS011;40174;52.364;6.452;2022-11-28T13:46:39;12.82;;;5.30;;
54261;SDS011;40174;52.364;6.452;2022-11-28T13:49:09;13.63;;;5.63;;
54261;SDS011;40174;52.364;6.452;2022-11-28T13:51:45;13.18;;;5.30;;
54261;SDS011;40174;52.364;6.452;2022-11-28T14:00:01;14.30;;;6.57;;
54261;SDS011;40174;52.364;6.452;2022-11-28T14:02:41;16.02;;;6.53;;
54261;SDS011;40174;52.364;6.452;2022-11-28T14:05:24;16.38;;;7.13;;
54261;SDS011;40174;52.364;6.452;2022-11-28T14:07:54;14.38;;;6.72;;
54261;SDS011;40174;52.364;6.452;2022-11-28T14:10:24;16.25;;;6.65;;
54261;SDS011;40174;52.364;6.452;2022-11-28T14:13:03;13.32;;;5.70;;
54261;SDS011;40174;52.364;6.452;2022-11-28T14:15:51;13.88;;;6.03;;
54261;SDS011;40174;52.364;6.452;2022-11-28T14:18:31;12.05;;;5.40;;
54261;SDS011;40174;52.364;6.452;2022-11-28T14:21:08;13.65;;;5.75;;
54261;SDS011;40174;52.364;6.452;2022-11-28T14:23:44;15.52;;;5.93;;
54261;SDS011;40174;52.364;6.452;2022-11-28T14:26:21;17.67;;;6.80;;
54261;SDS011;40174;52.364;6.452;2022-11-28T14:28:51;13.73;;;5.63;;
54261;SDS011;40174;52.364;6.452;2022-11-28T14:31:22;16.02;;;6.93;;
54261;SDS011;40174;52.364;6.452;2022-11-28T14:33:55;16.95;;;6.25;;
54261;SDS011;40174;52.364;6.452;2022-11-28T14:36:26;18.13;;;7.13;;
54261;SDS011;40174;52.364;6.452;2022-11-28T14:39:00;16.42;;;6.25;;
54261;SDS011;40174;52.364;6.452;2022-11-28T14:44:46;16.17;;;6.30;;
54261;SDS011;40174;52.364;6.452;2022-11-28T14:47:16;17.33;;;6.40;;
54261;SDS011;40174;52.364;6.452;2022-11-28T14:55:48;17.88;;;6.72;;
54261;SDS011;40174;52.364;6.452;2022-11-28T14:58:15;20.25;;;6.72;;
54261;SDS011;40174;52.364;6.452;2022-11-28T15:00:44;20.63;;;6.80;;
54261;SDS011;40174;52.364;6.452;2022-11-28T15:03:19;17.38;;;6.13;;
54261;SDS011;40174;52.364;6.452;2022-11-28T15:05:57;17.17;;;6.32;;
54261;SDS011;40174;52.364;6.452;2022-11-28T15:08:36;18.92;;;6.68;;
54261;SDS011;40174;52.364;6.452;2022-11-28T15:11:26;14.98;;;6.40;;
54261;SDS011;40174;52.364;6.452;2022-11-28T15:14:05;15.85;;;6.63;;
54261;SDS011;40174;52.364;6.452;2022-11-28T15:16:37;17.27;;;6.82;;
54261;SDS011;40174;52.364;6.452;2022-11-28T15:19:07;16.60;;;6.47;;
54261;SDS011;40174;52.364;6.452;2022-11-28T15:21:41;19.88;;;7.70;;
54261;SDS011;40174;52.364;6.452;2022-11-28T15:24:14;18.60;;;7.18;;
54261;SDS011;40174;52.364;6.452;2022-11-28T15:26:48;19.08;;;7.35;;
54261;SDS011;40174;52.364;6.452;2022-11-28T15:29:17;17.25;;;7.18;;
54261;SDS011;40174;52.364;6.452;2022-11-28T15:31:47;16.30;;;6.75;;